Terminal Aerodrome Forecast
Issued by NWS

Home | Current Version | Previous Version | Text Only | Print | Product List | Glossary On
Versions: 1 2 3 4 5 6 7 8 9 10 11 12 13
000
FTUS44 KMOB 252321
TAFBFM
TAF
KBFM 252321Z 2600/2624 28006KT P6SM VCTS SCT020CB
      TEMPO 2600/2604 VRB10G20KT 3SM TSRA BKN025CB
     FM260400 00000KT P6SM SCT030 BKN250
     FM261200 34004KT P6SM VCTS SCT030CB BKN250=

USA.gov is the U.S. government's official web portal to all federal, state and local government web resources and services.